Topsham, Vermont
Current Conditions -  °F | °C
As of 5:51 PM on Thursday 23 Oct 2014 (Local Time) from KMPV Reporting Station
Light Rain Light Rain  
Wind Chill: 40°   Ceiling: 700
Heat Index: 44°   Visibility: 10mi
Dew Point: 43°   Wind: 8mph
Humidity: 96%   Direction: 350°N
Pressure: 29.88"   Gusts: NA
Location:  44.0639°N, 72.2226°W
Report Text: KMPV 232151Z AUTO 35007KT 10SM -RA OVC007 07/06 A2988 RMK AO2 CIG 004V011 SLP127 P0004 T00670061
Loading
Personal Weather Stations






























Interactive Weather Map
Tropical Storm Tracking
New forecast layout! Learn more

10-Day Weather Forecast

Advertisements
Track Severe Weather on mobile